Time;durP1;ratioP1;P1;durP2;ratioP2;P2;SDS_P1;SDS_P2;PMS_P1;PMS_P2;Temp;Humidity;BMP_temperature;BMP_pressure;BME280_temperature;BME280_humidity;BME280_pressure;Samples;Min_cycle;Max_cycle;Signal;HPM_P1;HPM_P2
2023/12/13 00:02:11;;;;;;;1.20;1.10;;;7.90;99.90;;;;;;5094211;28;20067;-75
2023/12/13 00:04:37;;;;;;;1.00;0.95;;;7.90;99.90;;;;;;5094193;28;20468;-71
2023/12/13 00:07:03;;;;;;;1.20;1.10;;;7.80;99.90;;;;;;5093707;28;20122;-74
2023/12/13 00:09:28;;;;;;;1.10;1.00;;;7.80;99.90;;;;;;5094059;28;20418;-71
2023/12/13 00:11:54;;;;;;;0.90;0.90;;;7.90;99.90;;;;;;5094080;28;20043;-73
2023/12/13 00:14:21;;;;;;;1.10;1.00;;;7.80;99.90;;;;;;5093930;28;20071;-73
2023/12/13 00:16:46;;;;;;;1.10;1.00;;;7.80;99.90;;;;;;5093876;28;20491;-70
2023/12/13 00:19:12;;;;;;;1.10;1.00;;;8.30;99.90;;;;;;5093842;28;20071;-73
2023/12/13 00:21:37;;;;;;;1.10;1.00;;;7.80;99.90;;;;;;5093852;28;20054;-72
2023/12/13 00:24:03;;;;;;;1.10;1.00;;;7.80;99.90;;;;;;5093796;28;20036;-74
2023/12/13 00:26:30;;;;;;;1.10;1.00;;;7.80;99.90;;;;;;5093768;28;20040;-71
2023/12/13 00:28:55;;;;;;;0.93;0.93;;;7.80;99.90;;;;;;5093643;28;20101;-72
2023/12/13 00:31:21;;;;;;;1.60;1.50;;;7.80;99.90;;;;;;5093741;28;20085;-71
2023/12/13 00:33:46;;;;;;;2.25;1.10;;;8.20;99.90;;;;;;5093713;28;20464;-73
2023/12/13 00:36:12;;;;;;;0.98;0.95;;;7.80;99.90;;;;;;5093670;28;20032;-70
2023/12/13 00:38:37;;;;;;;1.10;1.00;;;7.80;99.90;;;;;;5093544;28;20101;-71
2023/12/13 00:41:04;;;;;;;0.90;0.90;;;8.40;99.90;;;;;;5093670;28;20109;-73
2023/12/13 00:43:30;;;;;;;0.90;0.90;;;7.70;99.90;;;;;;5093683;28;20048;-73
2023/12/13 00:45:55;;;;;;;1.52;1.42;;;7.80;99.90;;;;;;5093865;28;20066;-72
2023/12/13 00:48:21;;;;;;;1.10;1.00;;;7.70;99.90;;;;;;5093600;28;20119;-70
2023/12/13 00:50:46;;;;;;;0.90;0.90;;;7.70;99.90;;;;;;5093550;28;20133;-74
2023/12/13 00:53:12;;;;;;;1.30;1.20;;;7.70;99.90;;;;;;5093292;28;20472;-72
2023/12/13 00:55:38;;;;;;;1.55;1.45;;;7.70;99.90;;;;;;5093558;28;20046;-70
2023/12/13 00:58:04;;;;;;;1.40;1.30;;;8.50;99.90;;;;;;5093464;28;20122;-72
2023/12/13 01:00:29;;;;;;;1.20;1.10;;;7.70;99.90;;;;;;5093518;28;20111;-71
2023/12/13 01:02:55;;;;;;;0.90;0.90;;;7.70;99.90;;;;;;5093748;28;20036;-73
2023/12/13 01:05:21;;;;;;;1.63;1.52;;;8.40;99.90;;;;;;5093401;28;20115;-73
2023/12/13 01:07:46;;;;;;;1.05;0.98;;;7.70;99.90;;;;;;5095824;28;20464;-73
2023/12/13 01:10:13;;;;;;;1.10;1.00;;;7.60;99.90;;;;;;5097556;28;20040;-70
2023/12/13 01:12:42;;;;;;;1.20;1.10;;;7.80;99.90;;;;;;5096210;28;20043;-72
2023/12/13 01:15:09;;;;;;;1.30;1.20;;;7.60;99.90;;;;;;5097387;28;20559;-72
2023/12/13 01:17:34;;;;;;;;;;;7.60;99.90;;;;;;5097903;28;20052;-72
2023/12/13 01:20:01;;;;;;;1.65;1.48;;;7.50;99.90;;;;;;5097315;28;19923;-74
2023/12/13 01:22:27;;;;;;;1.10;1.00;;;7.50;99.90;;;;;;5097152;28;20032;-73
2023/12/13 01:24:53;;;;;;;4.45;4.05;;;7.50;99.90;;;;;;5097207;28;20178;-73
2023/12/13 01:27:18;;;;;;;1.38;1.27;;;7.60;99.90;;;;;;5096845;28;20051;-72
2023/12/13 01:29:44;;;;;;;1.40;1.30;;;7.40;99.90;;;;;;5097550;28;20039;-73
2023/12/13 01:32:09;;;;;;;1.52;1.42;;;7.60;99.90;;;;;;5097235;28;20581;-72
2023/12/13 01:34:35;;;;;;;1.00;0.95;;;7.50;99.90;;;;;;5095847;28;20076;-71
2023/12/13 01:37:03;;;;;;;4.05;1.35;;;7.50;99.90;;;;;;5096940;28;20070;-71
2023/12/13 01:39:29;;;;;;;1.10;1.00;;;8.10;99.90;;;;;;5096879;28;20036;-72
2023/12/13 01:41:54;;;;;;;1.10;1.00;;;7.40;99.90;;;;;;5096859;28;20086;-74
2023/12/13 01:44:20;;;;;;;4.00;2.17;;;7.40;99.90;;;;;;5096905;28;20426;-72
2023/12/13 01:46:46;;;;;;;1.10;1.00;;;7.50;99.90;;;;;;5096653;28;20071;-70
2023/12/13 01:49:13;;;;;;;1.20;1.10;;;7.50;99.90;;;;;;5096747;28;20127;-72
2023/12/13 01:51:39;;;;;;;1.40;1.30;;;7.50;99.90;;;;;;5096304;28;20052;-72
2023/12/13 01:54:09;;;;;;;1.23;1.13;;;7.50;99.90;;;;;;5096629;28;20039;-72
2023/12/13 01:56:38;;;;;;;1.00;1.00;;;7.50;99.90;;;;;;5097101;28;20039;-76
2023/12/13 01:59:04;;;;;;;1.17;1.08;;;7.50;99.90;;;;;;5097055;28;20040;-71
2023/12/13 02:01:30;;;;;;;1.20;1.10;;;8.00;99.90;;;;;;5096485;28;20036;-72
2023/12/13 02:03:56;;;;;;;0.95;0.90;;;7.50;99.90;;;;;;5096248;28;20040;-72
2023/12/13 02:06:21;;;;;;;1.38;1.27;;;7.50;99.90;;;;;;5096429;28;20062;-73
2023/12/13 02:08:47;;;;;;;1.10;1.00;;;7.60;99.90;;;;;;5096078;28;20480;-71
2023/12/13 02:11:13;;;;;;;1.85;1.73;;;8.00;99.90;;;;;;5096353;28;20042;-72
2023/12/13 02:13:39;;;;;;;1.10;1.00;;;7.50;99.90;;;;;;5096258;28;20040;-74
2023/12/13 02:16:05;;;;;;;1.10;1.00;;;8.00;99.90;;;;;;5096196;28;20078;-72
2023/12/13 02:18:31;;;;;;;1.30;1.20;;;7.50;99.90;;;;;;5095248;28;20294;-72
2023/12/13 02:20:57;;;;;;;1.13;1.02;;;7.60;99.90;;;;;;5096118;28;20338;-71
2023/12/13 02:23:22;;;;;;;1.08;0.98;;;7.50;99.90;;;;;;5096512;28;20039;-71
2023/12/13 02:26:01;;;;;;;2.08;1.80;;;7.90;99.90;;;;;;5096348;28;20103;-74
2023/12/13 02:28:28;;;;;;;1.20;1.10;;;7.50;99.90;;;;;;5095995;28;20468;-71
2023/12/13 02:30:56;;;;;;;1.42;1.33;;;7.50;99.90;;;;;;5095654;28;20418;-72
2023/12/13 02:33:26;;;;;;;1.10;1.00;;;7.50;99.90;;;;;;5095846;28;20043;-72
2023/12/13 02:35:53;;;;;;;1.30;1.20;;;7.80;99.90;;;;;;5095862;28;20115;-73
2023/12/13 02:38:19;;;;;;;0.80;0.80;;;8.20;99.90;;;;;;5095709;28;20039;-70
2023/12/13 02:40:44;;;;;;;1.00;0.90;;;7.40;99.90;;;;;;5095807;28;20320;-73
2023/12/13 02:43:10;;;;;;;1.40;1.30;;;7.80;99.90;;;;;;5095737;28;20075;-71
2023/12/13 02:45:38;;;;;;;1.00;0.95;;;7.50;99.90;;;;;;5095830;28;20032;-72
2023/12/13 02:48:05;;;;;;;1.08;1.00;;;8.10;99.90;;;;;;5095296;28;20055;-70
2023/12/13 02:50:30;;;;;;;1.20;1.10;;;7.50;99.90;;;;;;5096024;28;20047;-73
2023/12/13 02:52:56;;;;;;;0.90;0.90;;;7.50;99.90;;;;;;5095535;28;20044;-72
2023/12/13 02:55:21;;;;;;;0.90;0.90;;;7.50;99.90;;;;;;5095531;28;20190;-74
2023/12/13 02:57:47;;;;;;;1.20;1.10;;;7.50;99.90;;;;;;5095031;28;20472;-72
2023/12/13 03:00:13;;;;;;;1.10;1.00;;;7.50;99.90;;;;;;5095334;28;20040;-73
2023/12/13 03:02:41;;;;;;;2.15;1.95;;;7.50;99.90;;;;;;5095000;28;20044;-73
2023/12/13 03:05:07;;;;;;;1.10;1.00;;;7.50;99.90;;;;;;5095255;28;20036;-72
2023/12/13 03:07:33;;;;;;;1.10;1.00;;;7.50;99.90;;;;;;5094748;28;20047;-72
2023/12/13 03:09:59;;;;;;;1.10;1.00;;;7.50;99.90;;;;;;5094873;28;20128;-71
2023/12/13 03:12:24;;;;;;;1.10;1.00;;;7.60;99.90;;;;;;5094818;28;20476;-73
2023/12/13 03:14:50;;;;;;;1.08;1.00;;;7.50;99.90;;;;;;5094862;28;20189;-73
2023/12/13 03:17:15;;;;;;;1.02;0.93;;;8.20;99.90;;;;;;5094312;28;20503;-72
2023/12/13 03:19:41;;;;;;;1.08;0.98;;;8.00;99.90;;;;;;5094646;28;20043;-72
2023/12/13 03:22:07;;;;;;;1.30;1.20;;;7.50;99.90;;;;;;5094848;28;20040;-72
2023/12/13 03:24:34;;;;;;;1.30;1.20;;;7.50;99.90;;;;;;5095216;28;20123;-72
2023/12/13 03:26:59;;;;;;;1.05;1.00;;;7.50;99.90;;;;;;5094772;28;20040;-70
2023/12/13 03:29:25;;;;;;;1.10;1.00;;;7.50;99.90;;;;;;5094741;28;20423;-71
2023/12/13 03:31:50;;;;;;;1.95;1.75;;;7.70;99.90;;;;;;5094802;28;20043;-70
2023/12/13 03:34:16;;;;;;;0.93;0.90;;;7.50;99.90;;;;;;5094403;28;20051;-71
2023/12/13 03:36:42;;;;;;;1.10;1.00;;;7.50;99.90;;;;;;5094716;28;20044;-71
2023/12/13 03:39:07;;;;;;;1.10;1.00;;;7.50;99.90;;;;;;5094626;28;20417;-71
2023/12/13 03:41:34;;;;;;;1.10;1.00;;;7.50;99.90;;;;;;5094787;28;20040;-71
2023/12/13 03:43:59;;;;;;;1.40;1.30;;;8.00;99.90;;;;;;5094562;28;20043;-73
2023/12/13 03:46:25;;;;;;;1.20;1.10;;;7.50;99.90;;;;;;5094471;28;20077;-73
2023/12/13 03:48:51;;;;;;;1.70;1.60;;;7.60;99.90;;;;;;5094389;28;20085;-74
2023/12/13 03:51:16;;;;;;;1.38;1.27;;;7.60;99.90;;;;;;5094849;28;20036;-73
2023/12/13 03:53:42;;;;;;;2.55;2.35;;;7.80;99.90;;;;;;5094743;28;20083;-70
2023/12/13 03:56:09;;;;;;;1.75;1.65;;;7.50;99.90;;;;;;5094404;28;20044;-72
2023/12/13 03:58:36;;;;;;;2.85;1.90;;;7.60;99.90;;;;;;5094146;28;20032;-72
2023/12/13 04:01:02;;;;;;;1.10;1.00;;;7.60;99.90;;;;;;5094247;28;20044;-70
2023/12/13 04:03:28;;;;;;;1.10;1.00;;;7.60;99.90;;;;;;5094117;28;20289;-70
2023/12/13 04:05:53;;;;;;;1.52;1.10;;;7.60;99.90;;;;;;5094198;28;20380;-73
2023/12/13 04:08:19;;;;;;;1.63;1.52;;;7.60;99.90;;;;;;5094503;28;20472;-71
2023/12/13 04:10:45;;;;;;;1.20;1.10;;;7.60;99.90;;;;;;5094175;28;20044;-73
2023/12/13 04:13:10;;;;;;;0.90;0.90;;;7.60;99.90;;;;;;5093934;28;20076;-72
2023/12/13 04:15:36;;;;;;;2.42;2.25;;;8.30;99.90;;;;;;5094124;28;20047;-71
2023/12/13 04:18:01;;;;;;;1.10;1.00;;;7.60;99.90;;;;;;5093446;28;20038;-69
2023/12/13 04:20:27;;;;;;;1.40;1.30;;;7.60;99.90;;;;;;5093984;28;20089;-71
2023/12/13 04:22:53;;;;;;;1.65;1.55;;;7.90;99.90;;;;;;5093938;28;20028;-72
2023/12/13 04:25:18;;;;;;;1.48;1.38;;;7.60;99.90;;;;;;5093880;28;20433;-70
2023/12/13 04:27:45;;;;;;;1.20;1.10;;;7.60;99.90;;;;;;5093638;28;20043;-72
2023/12/13 04:30:11;;;;;;;1.02;1.00;;;7.70;99.90;;;;;;5093832;28;20076;-71
2023/12/13 04:32:38;;;;;;;1.00;1.00;;;7.60;99.90;;;;;;5093718;28;20048;-72
2023/12/13 04:35:05;;;;;;;0.98;0.90;;;7.60;99.90;;;;;;5093825;28;20093;-72
2023/12/13 04:37:31;;;;;;;0.90;0.90;;;7.60;99.90;;;;;;5093696;28;20051;-73
2023/12/13 04:39:57;;;;;;;0.90;0.90;;;7.70;99.90;;;;;;5093677;28;20028;-74
2023/12/13 04:42:23;;;;;;;1.52;1.42;;;7.60;99.90;;;;;;5093185;28;20051;-71
2023/12/13 04:44:49;;;;;;;1.10;1.00;;;7.70;99.90;;;;;;5093638;28;20464;-70
2023/12/13 04:47:15;;;;;;;1.05;0.95;;;7.60;99.90;;;;;;5093647;28;20482;-70
2023/12/13 04:49:41;;;;;;;1.10;1.00;;;8.00;99.90;;;;;;5093572;28;20079;-73
2023/12/13 04:52:06;;;;;;;1.10;1.00;;;8.00;99.90;;;;;;5093314;28;20080;-74
2023/12/13 04:54:32;;;;;;;1.90;1.75;;;7.70;99.90;;;;;;5093794;28;20035;-72
2023/12/13 04:56:58;;;;;;;1.20;1.10;;;7.60;99.90;;;;;;5093570;28;20032;-72
2023/12/13 04:59:24;;;;;;;1.10;1.00;;;7.60;99.90;;;;;;5093560;28;20040;-70
2023/12/13 05:01:49;;;;;;;0.90;0.90;;;7.70;99.90;;;;;;5093542;28;20079;-73
2023/12/13 05:04:15;;;;;;;1.10;1.00;;;7.70;99.90;;;;;;5093457;28;20320;-73
2023/12/13 05:06:41;;;;;;;0.95;0.95;;;8.10;99.90;;;;;;5093583;28;20040;-74
2023/12/13 05:09:07;;;;;;;1.10;1.00;;;7.70;99.90;;;;;;5093503;28;20046;-72
2023/12/13 05:11:33;;;;;;;1.40;1.30;;;7.70;99.90;;;;;;5093394;28;20047;-72
2023/12/13 05:13:58;;;;;;;1.50;1.40;;;7.70;99.90;;;;;;5093444;28;20044;-74
2023/12/13 05:16:24;;;;;;;1.08;1.00;;;7.70;99.90;;;;;;5093310;28;20044;-73
2023/12/13 05:18:49;;;;;;;1.10;1.00;;;7.70;99.90;;;;;;5093651;28;20097;-72
2023/12/13 05:21:15;;;;;;;0.90;0.90;;;7.60;99.90;;;;;;5093748;28;20107;-73
2023/12/13 05:23:41;;;;;;;1.17;1.08;;;7.70;99.90;;;;;;5093361;28;20380;-71
2023/12/13 05:26:06;;;;;;;1.00;1.00;;;8.30;99.90;;;;;;5093279;28;20087;-72
2023/12/13 05:28:32;;;;;;;1.10;1.00;;;7.70;99.90;;;;;;5093389;28;20460;-70
2023/12/13 05:30:58;;;;;;;1.40;1.30;;;7.60;99.90;;;;;;5092136;28;20048;-70
2023/12/13 05:33:24;;;;;;;0.90;0.90;;;7.90;99.90;;;;;;5093199;28;20044;-72
2023/12/13 05:35:49;;;;;;;0.90;0.90;;;7.70;99.90;;;;;;5093805;28;20494;-72
2023/12/13 05:38:15;;;;;;;1.30;1.20;;;8.10;99.90;;;;;;5093066;28;20036;-70
2023/12/13 05:40:41;;;;;;;1.20;1.10;;;7.70;99.90;;;;;;5093106;28;20043;-69
2023/12/13 05:43:06;;;;;;;1.02;0.93;;;7.70;99.90;;;;;;5093157;28;20036;-71
2023/12/13 05:45:32;;;;;;;1.10;1.00;;;7.70;99.90;;;;;;5093090;28;20035;-76
2023/12/13 05:47:58;;;;;;;1.25;1.15;;;7.70;99.90;;;;;;5093014;28;20044;-73
2023/12/13 05:50:24;;;;;;;0.95;0.90;;;7.70;99.90;;;;;;5092817;28;20487;-72
2023/12/13 05:52:49;;;;;;;1.10;1.00;;;7.70;99.90;;;;;;5093360;28;20040;-74
2023/12/13 05:55:15;;;;;;;1.45;1.35;;;7.80;99.90;;;;;;5095682;28;20036;-77
2023/12/13 05:57:41;;;;;;;1.20;1.10;;;7.70;99.90;;;;;;5096557;28;20073;-74
2023/12/13 06:00:08;;;;;;;1.13;1.02;;;7.70;99.90;;;;;;5096532;28;20417;-74
2023/12/13 06:02:36;;;;;;;0.90;0.90;;;7.70;99.90;;;;;;5096503;28;20036;-74
2023/12/13 06:05:05;;;;;;;1.10;1.00;;;7.80;99.90;;;;;;5096450;28;20040;-71
2023/12/13 06:07:31;;;;;;;1.80;1.40;;;7.70;99.90;;;;;;5096471;28;20395;-71
2023/12/13 06:09:56;;;;;;;1.23;1.13;;;7.70;99.90;;;;;;5096635;28;20040;-74
2023/12/13 06:12:22;;;;;;;1.10;1.00;;;7.90;99.90;;;;;;5096333;28;20040;-73
2023/12/13 06:14:48;;;;;;;1.67;1.25;;;7.70;99.90;;;;;;5096405;28;20079;-71
2023/12/13 06:17:13;;;;;;;0.90;0.90;;;8.60;99.90;;;;;;5096378;28;20048;-70
2023/12/13 06:19:39;;;;;;;1.20;1.10;;;7.70;99.90;;;;;;5095949;28;20043;-73
2023/12/13 06:22:07;;;;;;;1.80;1.70;;;7.70;99.90;;;;;;5096200;28;20119;-74
2023/12/13 06:24:33;;;;;;;0.90;0.90;;;7.70;99.90;;;;;;5095950;28;20044;-72
2023/12/13 06:26:59;;;;;;;0.80;0.80;;;7.80;99.90;;;;;;5096183;28;20119;-75
2023/12/13 06:29:24;;;;;;;0.80;0.80;;;7.80;99.90;;;;;;5095923;28;20082;-75
2023/12/13 06:31:50;;;;;;;1.08;1.02;;;7.70;99.90;;;;;;5095875;28;20036;-73
2023/12/13 06:34:15;;;;;;;0.90;0.90;;;7.70;99.90;;;;;;5096338;28;20468;-74
2023/12/13 06:36:41;;;;;;;0.80;0.80;;;7.70;99.90;;;;;;5095929;28;20094;-71
2023/12/13 06:39:11;;;;;;;0.85;0.85;;;7.80;99.90;;;;;;5096023;28;20479;-71
2023/12/13 06:41:37;;;;;;;0.90;0.90;;;8.60;99.90;;;;;;5095776;28;20040;-72
2023/12/13 06:44:03;;;;;;;0.90;0.90;;;7.80;99.90;;;;;;5095648;28;20044;-71
2023/12/13 06:46:29;;;;;;;0.90;0.90;;;7.80;99.90;;;;;;5095695;28;20040;-73
2023/12/13 06:48:55;;;;;;;0.80;0.80;;;7.80;99.90;;;;;;5095638;28;20467;-71
2023/12/13 06:51:20;;;;;;;0.90;0.90;;;7.80;99.90;;;;;;5095875;28;20043;-76
2023/12/13 06:53:46;;;;;;;0.90;0.90;;;7.80;99.90;;;;;;5095860;28;20040;-71
2023/12/13 06:56:12;;;;;;;2.75;2.53;;;8.00;99.90;;;;;;5095539;28;20036;-80
2023/12/13 06:58:38;;;;;;;0.87;0.87;;;7.90;99.90;;;;;;5095026;28;20468;-72
2023/12/13 07:01:04;;;;;;;1.13;1.05;;;7.80;99.90;;;;;;5095320;28;20043;-73
2023/12/13 07:03:30;;;;;;;0.90;0.90;;;7.80;99.90;;;;;;5095270;28;20142;-75
2023/12/13 07:05:56;;;;;;;0.90;0.90;;;7.80;99.90;;;;;;5094878;28;20115;-69
2023/12/13 07:08:21;;;;;;;2.13;1.45;;;7.80;99.90;;;;;;5095473;28;20032;-73
2023/12/13 07:10:47;;;;;;;0.90;0.90;;;7.80;99.90;;;;;;5095272;28;20035;-73
2023/12/13 07:13:13;;;;;;;0.90;0.90;;;8.10;99.90;;;;;;5095186;28;20036;-74
2023/12/13 07:15:38;;;;;;;0.90;0.90;;;7.80;99.90;;;;;;5094677;28;20468;-72
2023/12/13 07:18:04;;;;;;;0.90;0.90;;;7.90;99.90;;;;;;5094958;28;20052;-71
2023/12/13 07:20:34;;;;;;;1.27;1.08;;;7.80;99.90;;;;;;5095290;28;20052;-68
2023/12/13 07:22:59;;;;;;;1.45;1.35;;;7.80;99.90;;;;;;5094572;28;20036;-72
2023/12/13 07:25:25;;;;;;;1.00;1.00;;;8.20;99.90;;;;;;5094815;28;20043;-69
2023/12/13 07:27:51;;;;;;;0.90;0.90;;;8.40;99.90;;;;;;5094576;28;20039;-70
2023/12/13 07:30:17;;;;;;;1.20;1.10;;;7.80;99.90;;;;;;5094768;28;20424;-76
2023/12/13 07:32:44;;;;;;;1.27;1.17;;;7.80;99.90;;;;;;5095129;28;20048;-70
2023/12/13 07:35:10;;;;;;;1.10;1.00;;;8.30;99.90;;;;;;5092617;28;20082;-69
2023/12/13 07:37:36;;;;;;;0.90;0.90;;;8.40;99.90;;;;;;5093119;28;20127;-67
2023/12/13 07:40:06;;;;;;;0.90;0.90;;;7.80;99.90;;;;;;5094319;28;20375;-70
2023/12/13 07:42:32;;;;;;;0.80;0.80;;;7.80;99.90;;;;;;5092183;28;20063;-72
2023/12/13 07:44:58;;;;;;;2.30;1.10;;;7.80;99.90;;;;;;5092099;28;20113;-72
2023/12/13 07:47:24;;;;;;;1.00;1.00;;;8.30;99.90;;;;;;5092297;28;20282;-72
2023/12/13 07:49:50;;;;;;;1.30;1.20;;;7.80;99.90;;;;;;5092421;28;20042;-72
2023/12/13 07:52:15;;;;;;;1.10;1.00;;;7.80;99.90;;;;;;5092157;28;20460;-70
2023/12/13 07:54:44;;;;;;;1.20;1.10;;;7.80;99.90;;;;;;5092952;28;20044;-71
2023/12/13 07:57:10;;;;;;;0.95;0.95;;;7.80;99.90;;;;;;5094222;28;20040;-71
2023/12/13 07:59:35;;;;;;;3.65;1.52;;;7.80;99.90;;;;;;5094124;28;20038;-70
2023/12/13 08:02:01;;;;;;;1.15;1.08;;;7.80;99.90;;;;;;5094232;28;20051;-72
2023/12/13 08:04:27;;;;;;;1.20;1.10;;;8.00;99.90;;;;;;5094611;28;20086;-72
2023/12/13 08:06:53;;;;;;;1.67;1.10;;;8.20;99.90;;;;;;5094104;28;20036;-70
2023/12/13 08:09:19;;;;;;;1.02;1.00;;;7.80;99.90;;;;;;5094264;28;20032;-73
2023/12/13 08:11:49;;;;;;;0.93;0.90;;;7.80;99.90;;;;;;5094166;28;20383;-72
2023/12/13 08:14:14;;;;;;;1.48;1.33;;;7.80;99.90;;;;;;5094075;28;20414;-72
2023/12/13 08:16:41;;;;;;;1.20;1.10;;;7.90;99.90;;;;;;5093026;28;20097;-73
2023/12/13 08:19:06;;;;;;;0.90;0.90;;;8.00;99.90;;;;;;5093914;28;20463;-70
2023/12/13 08:21:32;;;;;;;0.80;0.80;;;7.90;99.90;;;;;;5093985;28;20130;-69
2023/12/13 08:23:57;;;;;;;1.10;1.00;;;7.90;99.90;;;;;;5093734;28;20083;-72
2023/12/13 08:26:25;;;;;;;0.85;0.85;;;7.90;99.90;;;;;;5093930;28;20044;-71
2023/12/13 08:28:51;;;;;;;1.13;1.02;;;7.90;99.90;;;;;;5093521;28;20498;-72
2023/12/13 08:31:17;;;;;;;1.42;1.25;;;8.50;99.90;;;;;;5094293;28;20109;-72
2023/12/13 08:33:43;;;;;;;1.02;1.00;;;7.90;99.90;;;;;;5093803;28;20048;-71
2023/12/13 08:36:13;;;;;;;1.00;1.00;;;8.00;99.90;;;;;;5093624;28;20420;-72
2023/12/13 08:38:42;;;;;;;0.90;0.90;;;7.90;99.90;;;;;;5093635;28;20078;-74
2023/12/13 08:41:11;;;;;;;0.90;0.90;;;8.00;99.90;;;;;;5093754;28;20043;-72
2023/12/13 08:43:38;;;;;;;0.90;0.90;;;8.10;99.90;;;;;;5091619;28;20048;-70
2023/12/13 08:46:04;;;;;;;0.80;0.80;;;8.00;99.90;;;;;;5093408;28;20032;-71
2023/12/13 08:48:30;;;;;;;1.15;1.05;;;8.00;99.90;;;;;;5093426;28;20384;-71
2023/12/13 08:50:56;;;;;;;1.27;1.23;;;8.00;99.90;;;;;;5093436;28;20039;-70
2023/12/13 08:53:22;;;;;;;1.23;1.13;;;8.00;99.90;;;;;;5093463;28;20043;-74
2023/12/13 08:55:47;;;;;;;1.10;1.00;;;8.00;99.90;;;;;;5093466;28;20050;-71
2023/12/13 08:58:13;;;;;;;0.90;0.90;;;8.00;99.90;;;;;;5092883;28;20032;-72
2023/12/13 09:00:39;;;;;;;0.90;0.90;;;8.00;99.90;;;;;;5093381;28;20032;-72
2023/12/13 09:03:04;;;;;;;1.13;1.02;;;8.00;99.90;;;;;;5093087;28;20387;-73
2023/12/13 09:05:30;;;;;;;1.10;1.00;;;8.00;99.90;;;;;;5093190;28;20081;-70
2023/12/13 09:07:56;;;;;;;0.80;0.80;;;8.10;99.90;;;;;;5093038;28;20032;-72
2023/12/13 09:10:22;;;;;;;1.10;1.00;;;8.10;99.90;;;;;;5092998;28;20040;-71
2023/12/13 09:12:48;;;;;;;1.02;1.02;;;8.40;99.90;;;;;;5093414;28;20374;-73
2023/12/13 09:15:17;;;;;;;0.90;0.90;;;8.20;99.90;;;;;;5093302;28;20040;-72
2023/12/13 09:17:45;;;;;;;0.80;0.80;;;8.10;99.90;;;;;;5093242;28;20376;-70
2023/12/13 09:20:14;;;;;;;1.08;0.98;;;8.20;99.90;;;;;;5093223;28;20040;-71
2023/12/13 09:22:42;;;;;;;0.90;0.90;;;8.20;99.90;;;;;;5093093;28;20040;-72
2023/12/13 09:25:08;;;;;;;1.38;1.27;;;8.20;99.90;;;;;;5093267;28;20131;-74
2023/12/13 09:27:35;;;;;;;1.23;1.13;;;8.10;99.90;;;;;;5093299;28;20101;-72
2023/12/13 09:30:01;;;;;;;0.90;0.90;;;8.20;99.90;;;;;;5097054;28;20043;-74
2023/12/13 09:32:27;;;;;;;0.90;0.90;;;8.40;99.90;;;;;;5095606;28;20040;-72
2023/12/13 09:34:52;;;;;;;1.10;1.00;;;8.20;99.90;;;;;;5096932;28;20102;-72
2023/12/13 09:37:18;;;;;;;1.20;1.10;;;8.20;99.90;;;;;;5096969;28;20090;-75
2023/12/13 09:39:45;;;;;;;0.90;0.90;;;8.20;99.90;;;;;;5096955;28;20488;-73
2023/12/13 09:42:12;;;;;;;0.90;0.90;;;8.20;99.90;;;;;;5096327;28;20044;-73
2023/12/13 09:44:39;;;;;;;;;;;8.20;99.90;;;;;;5097321;28;20048;-72
2023/12/13 09:47:06;;;;;;;0.90;0.90;;;8.20;99.90;;;;;;5096822;28;19916;-70
2023/12/13 09:49:34;;;;;;;1.00;1.00;;;8.20;99.90;;;;;;5096506;28;20082;-72
2023/12/13 09:52:03;;;;;;;0.90;0.90;;;8.20;99.90;;;;;;5096699;28;20463;-71
2023/12/13 09:54:30;;;;;;;0.90;0.90;;;8.30;99.90;;;;;;5096216;28;20040;-73
2023/12/13 09:56:56;;;;;;;0.80;0.80;;;8.30;99.90;;;;;;5096120;28;20035;-73
2023/12/13 09:59:23;;;;;;;0.90;0.90;;;8.30;99.90;;;;;;5095792;28;20047;-76
2023/12/13 10:01:49;;;;;;;1.17;1.13;;;8.30;99.90;;;;;;5096265;28;20081;-76
2023/12/13 10:04:15;;;;;;;0.90;0.90;;;8.30;99.90;;;;;;5096171;28;20122;-77
2023/12/13 10:06:41;;;;;;;0.90;0.90;;;8.80;99.90;;;;;;5096408;28;20048;-74
2023/12/13 10:09:07;;;;;;;3.38;1.17;;;8.30;99.90;;;;;;5096244;28;20040;-71
2023/12/13 10:11:33;;;;;;;0.93;0.93;;;8.40;99.90;;;;;;5095878;28;20078;-73
2023/12/13 10:13:59;;;;;;;1.10;1.00;;;8.60;99.90;;;;;;5095673;28;20117;-77
2023/12/13 10:16:28;;;;;;;1.10;1.00;;;8.50;99.90;;;;;;5095820;28;20487;-70
2023/12/13 10:18:54;;;;;;;0.88;0.88;;;8.50;99.90;;;;;;5096020;28;20040;-78
2023/12/13 10:21:20;;;;;;;0.90;0.90;;;8.50;99.90;;;;;;5096082;28;20043;-77
2023/12/13 10:23:45;;;;;;;0.80;0.80;;;8.50;99.90;;;;;;5095825;28;20040;-73
2023/12/13 10:26:12;;;;;;;1.35;1.25;;;8.50;99.90;;;;;;5095628;28;20083;-79
2023/12/13 10:28:37;;;;;;;1.10;1.00;;;8.50;99.90;;;;;;5095915;28;20105;-73
2023/12/13 10:31:03;;;;;;;0.90;0.90;;;8.50;99.90;;;;;;5095614;28;20043;-75
2023/12/13 10:33:30;;;;;;;1.00;1.00;;;8.60;99.90;;;;;;5095759;28;20058;-69
2023/12/13 10:35:57;;;;;;;0.90;0.90;;;8.60;99.90;;;;;;5094604;28;20278;-69
2023/12/13 10:38:25;;;;;;;1.05;0.98;;;8.60;99.90;;;;;;5095474;28;20746;-71
2023/12/13 10:40:52;;;;;;;1.75;1.65;;;8.70;99.90;;;;;;5094725;28;20206;-71
2023/12/13 10:43:19;;;;;;;0.90;0.90;;;8.70;99.90;;;;;;5095662;28;20086;-73
2023/12/13 10:45:58;;;;;;;1.20;1.10;;;8.70;99.90;;;;;;5095250;28;20040;-74
2023/12/13 10:48:31;;;;;;;1.10;1.00;;;8.70;99.90;;;;;;5095539;28;20036;-70
2023/12/13 10:50:57;;;;;;;0.90;0.90;;;8.70;99.90;;;;;;5095128;28;20072;-73
2023/12/13 10:53:24;;;;;;;1.30;1.23;;;9.50;99.90;;;;;;5095333;28;20115;-72
2023/12/13 10:55:51;;;;;;;1.20;1.10;;;8.70;99.90;;;;;;5095421;28;20032;-74
2023/12/13 10:58:19;;;;;;;0.95;0.95;;;9.50;99.90;;;;;;5095098;28;20036;-74
2023/12/13 11:00:46;;;;;;;2.40;1.65;;;8.80;99.90;;;;;;5094116;28;20048;-72
2023/12/13 11:03:19;;;;;;;1.45;1.35;;;8.80;99.90;;;;;;5095207;28;20040;-74
2023/12/13 11:05:46;;;;;;;0.90;0.90;;;9.20;99.90;;;;;;5095050;28;20119;-72
2023/12/13 11:08:19;;;;;;;1.77;1.63;;;8.80;99.90;;;;;;5095162;28;20036;-74
2023/12/13 11:11:04;;;;;;;1.20;1.10;;;8.90;99.90;;;;;;5098631;28;20036;-76
2023/12/13 11:13:30;;;;;;;1.10;1.00;;;8.80;99.90;;;;;;5097837;28;20043;-73
2023/12/13 11:15:57;;;;;;;1.20;1.10;;;9.10;99.90;;;;;;5094749;28;20040;-72
2023/12/13 11:18:24;;;;;;;0.90;0.90;;;8.90;99.90;;;;;;5094755;28;20119;-71
2023/12/13 11:20:58;;;;;;;1.92;1.83;;;8.90;99.90;;;;;;5093621;28;20310;-72
2023/12/13 11:23:27;;;;;;;1.30;1.20;;;8.90;99.90;;;;;;5094777;28;20070;-73
2023/12/13 11:25:56;;;;;;;1.02;1.02;;;8.90;99.90;;;;;;5094597;28;20046;-70
2023/12/13 11:28:22;;;;;;;1.25;1.15;;;8.90;99.90;;;;;;5094235;28;20482;-74
2023/12/13 11:30:48;;;;;;;0.93;0.93;;;9.30;99.90;;;;;;5094362;28;20399;-72
2023/12/13 11:33:15;;;;;;;0.80;0.80;;;9.00;99.90;;;;;;5094732;28;20036;-77
2023/12/13 11:35:41;;;;;;;1.23;1.13;;;9.60;99.90;;;;;;5094613;28;20123;-77
2023/12/13 11:38:07;;;;;;;0.90;0.90;;;9.00;99.90;;;;;;5094476;28;20036;-76
2023/12/13 11:40:33;;;;;;;1.25;1.17;;;9.00;99.90;;;;;;5094258;28;20333;-71
2023/12/13 11:42:59;;;;;;;0.90;0.90;;;9.00;99.90;;;;;;5094355;28;20459;-69
2023/12/13 11:45:25;;;;;;;0.90;0.90;;;9.20;99.90;;;;;;5094285;28;20048;-72
2023/12/13 11:47:50;;;;;;;1.20;1.10;;;9.10;99.90;;;;;;5094432;28;20040;-72
2023/12/13 11:50:16;;;;;;;0.90;0.90;;;9.00;99.90;;;;;;5094084;28;20071;-71
2023/12/13 11:52:44;;;;;;;1.30;1.20;;;9.10;99.90;;;;;;5094220;28;20103;-72
2023/12/13 11:55:09;;;;;;;0.90;0.90;;;9.80;99.90;;;;;;5094237;28;20562;-72
2023/12/13 11:57:35;;;;;;;0.90;0.90;;;9.10;99.90;;;;;;5094005;28;20119;-69
2023/12/13 12:00:01;;;;;;;3.15;1.60;;;9.20;99.90;;;;;;5094035;28;20337;-69
2023/12/13 12:02:27;;;;;;;1.53;1.43;;;9.20;99.90;;;;;;5094203;28;20040;-69
2023/12/13 12:04:52;;;;;;;0.90;0.90;;;9.20;99.90;;;;;;5094050;28;20040;-68
2023/12/13 12:07:18;;;;;;;0.80;0.80;;;9.20;99.90;;;;;;5094071;28;20036;-71
2023/12/13 12:09:52;;;;;;;0.90;0.90;;;9.20;99.90;;;;;;5093962;28;20047;-75
2023/12/13 12:12:18;;;;;;;0.80;0.80;;;9.20;99.90;;;;;;5092618;28;20047;-70
2023/12/13 12:14:47;;;;;;;0.70;0.70;;;9.30;99.90;;;;;;5093859;28;20043;-69
2023/12/13 12:17:14;;;;;;;0.90;0.90;;;9.20;99.90;;;;;;5093790;28;20387;-70
2023/12/13 12:19:41;;;;;;;0.80;0.80;;;9.30;99.90;;;;;;5094019;28;20474;-73
2023/12/13 12:22:07;;;;;;;0.90;0.90;;;9.30;99.90;;;;;;5093841;28;20090;-70
2023/12/13 12:24:36;;;;;;;1.00;1.00;;;9.30;99.90;;;;;;5093779;28;20456;-71
2023/12/13 12:27:11;;;;;;;1.05;0.95;;;9.30;99.90;;;;;;5093387;28;20349;-71
2023/12/13 12:29:38;;;;;;;0.90;0.90;;;9.40;99.90;;;;;;5093660;28;20035;-71
2023/12/13 12:32:08;;;;;;;1.10;1.00;;;9.30;99.90;;;;;;5093922;28;20368;-67
2023/12/13 12:34:35;;;;;;;0.93;0.93;;;9.30;99.90;;;;;;5093742;28;20047;-67
2023/12/13 12:37:02;;;;;;;0.70;0.70;;;9.40;99.90;;;;;;5093473;28;20102;-68
2023/12/13 12:39:29;;;;;;;0.80;0.80;;;9.40;99.90;;;;;;5093349;28;20090;-68
2023/12/13 12:41:55;;;;;;;0.90;0.90;;;9.40;99.90;;;;;;5093067;28;20052;-67
2023/12/13 12:44:21;;;;;;;0.90;0.90;;;9.50;99.90;;;;;;5093675;28;20043;-68
2023/12/13 12:46:46;;;;;;;1.30;1.20;;;9.40;99.90;;;;;;5093415;28;20123;-67
2023/12/13 12:49:12;;;;;;;0.90;0.90;;;9.40;99.90;;;;;;5093576;28;20442;-68
2023/12/13 12:51:37;;;;;;;1.17;0.80;;;9.40;99.90;;;;;;5093532;28;20105;-69
2023/12/13 12:54:03;;;;;;;1.27;1.23;;;9.40;99.90;;;;;;5093249;28;20044;-69